createdAt,value
2017-07-22T00:00:28.726Z,11.00
2017-07-22T00:02:55.453Z,11.67
2017-07-22T00:05:21.409Z,10.67
2017-07-22T00:07:47.354Z,11.60
2017-07-22T00:10:13.369Z,11.00
2017-07-22T00:12:40.074Z,11.17
2017-07-22T00:15:06.065Z,11.83
2017-07-22T00:17:32.011Z,12.13
2017-07-22T00:19:58.692Z,11.90
2017-07-22T00:22:24.668Z,11.77
2017-07-22T00:24:50.645Z,12.43
2017-07-22T00:27:16.689Z,12.50
2017-07-22T00:29:42.632Z,13.30
2017-07-22T00:32:08.601Z,12.40
2017-07-22T00:34:34.617Z,11.83
2017-07-22T00:37:00.569Z,13.20
2017-07-22T00:39:26.542Z,12.70
2017-07-22T00:41:52.476Z,11.67
2017-07-22T00:44:18.412Z,11.30
2017-07-22T00:46:44.393Z,12.67
2017-07-22T00:49:10.332Z,11.43
2017-07-22T00:51:37.025Z,11.73
2017-07-22T00:54:03.009Z,10.93
2017-07-22T00:56:28.961Z,11.57
2017-07-22T00:58:54.932Z,10.60
2017-07-22T01:01:20.878Z,11.00
2017-07-22T01:03:46.860Z,11.27
2017-07-22T01:06:12.801Z,10.30
2017-07-22T01:08:39.484Z,11.20
2017-07-22T01:11:05.457Z,12.17
2017-07-22T01:13:31.408Z,11.57
2017-07-22T01:15:57.398Z,11.13
2017-07-22T01:18:23.337Z,12.97
2017-07-22T01:20:49.276Z,12.20
2017-07-22T01:23:15.246Z,12.90
2017-07-22T01:25:41.180Z,12.53
2017-07-22T01:28:07.887Z,11.50
2017-07-22T01:30:33.896Z,12.70
2017-07-22T01:32:59.866Z,11.47
2017-07-22T01:35:25.809Z,11.77
2017-07-22T01:37:51.792Z,11.27
2017-07-22T01:40:17.797Z,12.57
2017-07-22T01:42:43.777Z,11.43
2017-07-22T01:45:09.708Z,12.13
2017-07-22T01:47:36.391Z,12.73
2017-07-22T01:50:02.360Z,11.53
2017-07-22T01:52:28.292Z,11.93
2017-07-22T01:54:54.262Z,11.93
2017-07-22T01:57:20.949Z,12.00
2017-07-22T01:59:46.938Z,11.40
2017-07-22T02:02:12.945Z,11.73
2017-07-22T02:04:38.881Z,11.30
2017-07-22T02:07:04.813Z,12.10
2017-07-22T02:09:31.556Z,10.70
2017-07-22T02:11:57.496Z,12.13
2017-07-22T02:14:23.440Z,12.33
2017-07-22T02:16:49.422Z,11.33
2017-07-22T02:19:15.445Z,12.23
2017-07-22T02:21:41.376Z,11.57
2017-07-22T02:24:07.311Z,12.20
2017-07-22T02:26:33.272Z,11.70
2017-07-22T02:28:59.313Z,12.80
2017-07-22T02:31:26.005Z,11.93
2017-07-22T02:33:51.942Z,13.60
2017-07-22T02:36:17.926Z,11.50
2017-07-22T02:38:43.865Z,12.57
2017-07-22T02:41:09.800Z,11.63
2017-07-22T02:43:35.776Z,10.80
2017-07-22T02:46:01.713Z,11.30
2017-07-22T02:48:27.653Z,12.93
2017-07-22T02:50:53.628Z,12.40
2017-07-22T02:53:19.572Z,12.27
2017-07-22T02:55:45.535Z,11.33
2017-07-22T02:58:11.520Z,11.43
2017-07-22T03:00:37.461Z,12.63
2017-07-22T03:03:03.388Z,11.50
2017-07-22T03:05:29.376Z,11.70
2017-07-22T03:07:55.308Z,11.90
2017-07-22T03:10:21.245Z,13.07
2017-07-22T03:12:47.232Z,12.10
2017-07-22T03:15:13.180Z,11.73
2017-07-22T03:17:39.112Z,12.30
2017-07-22T03:20:05.849Z,11.30
2017-07-22T03:22:31.788Z,12.47
2017-07-22T03:24:57.721Z,10.80
2017-07-22T03:27:23.725Z,12.97
2017-07-22T03:29:49.660Z,12.53
2017-07-22T03:32:16.376Z,13.30
2017-07-22T03:34:42.344Z,12.27
2017-07-22T03:37:08.284Z,12.47
2017-07-22T03:39:34.272Z,12.67
2017-07-22T03:42:00.208Z,12.07
2017-07-22T03:44:26.205Z,12.67
2017-07-22T03:46:52.176Z,14.20
2017-07-22T03:49:18.118Z,12.60
2017-07-22T03:51:44.088Z,13.40
2017-07-22T03:54:10.076Z,13.20
2017-07-22T03:56:36.761Z,13.27
2017-07-22T03:59:02.709Z,13.47
2017-07-22T04:01:29.428Z,14.07
2017-07-22T04:03:56.107Z,12.67
2017-07-22T04:06:22.041Z,12.40
2017-07-22T04:08:48.032Z,12.67
2017-07-22T04:11:13.982Z,12.83
2017-07-22T04:13:40.664Z,11.60
2017-07-22T04:16:06.632Z,12.73
2017-07-22T04:18:32.569Z,11.77
2017-07-22T04:20:58.552Z,12.40
2017-07-22T04:23:24.486Z,12.77
2017-07-22T04:25:50.449Z,12.20
2017-07-22T04:28:16.444Z,12.77
2017-07-22T04:30:42.401Z,13.40
2017-07-22T04:33:08.384Z,12.07
2017-07-22T04:35:34.320Z,13.80
2017-07-22T04:38:00.255Z,11.60
2017-07-22T04:40:26.240Z,13.87
2017-07-22T04:42:52.205Z,13.03
2017-07-22T04:45:18.178Z,12.30
2017-07-22T04:47:44.120Z,13.80
2017-07-22T04:50:10.097Z,12.13
2017-07-22T04:52:36.024Z,12.47
2017-07-22T04:55:01.957Z,12.50
2017-07-22T04:57:27.971Z,12.43
2017-07-22T04:59:54.650Z,12.17
2017-07-22T05:02:20.674Z,12.50
2017-07-22T05:04:46.672Z,12.40
2017-07-22T05:07:12.639Z,11.50
2017-07-22T05:09:38.608Z,11.70
2017-07-22T05:12:04.545Z,11.83
2017-07-22T05:14:31.264Z,11.60
2017-07-22T05:16:57.944Z,12.83
2017-07-22T05:19:23.886Z,13.00
2017-07-22T05:21:49.876Z,12.77
2017-07-22T05:24:15.821Z,11.77
2017-07-22T05:26:42.560Z,12.57
2017-07-22T05:29:09.236Z,11.73
2017-07-22T05:31:35.170Z,12.40
2017-07-22T05:34:01.141Z,11.90
2017-07-22T05:36:27.088Z,11.43
2017-07-22T05:38:53.030Z,12.00
2017-07-22T05:41:19.048Z,11.30
2017-07-22T05:43:45.066Z,11.67
2017-07-22T05:46:11.017Z,10.63
2017-07-22T05:48:36.997Z,11.07
2017-07-22T05:51:02.972Z,10.53
2017-07-22T05:53:28.913Z,11.60
2017-07-22T05:55:54.881Z,10.03
2017-07-22T05:58:21.597Z,11.33
2017-07-22T06:00:48.283Z,11.20
2017-07-22T06:03:14.248Z,10.53
2017-07-22T06:05:40.180Z,11.37
2017-07-22T06:08:06.145Z,10.47
2017-07-22T06:10:32.080Z,11.30
2017-07-22T06:12:58.069Z,10.00
2017-07-22T06:15:24.004Z,10.63
2017-07-22T06:17:49.949Z,11.70
2017-07-22T06:20:16.665Z,11.67
2017-07-22T06:22:42.621Z,10.60
2017-07-22T06:25:08.586Z,10.73
2017-07-22T06:27:35.313Z,10.43
2017-07-22T06:30:01.996Z,10.80
2017-07-22T06:32:27.927Z,10.73
2017-07-22T06:34:53.920Z,10.17
2017-07-22T06:37:19.875Z,9.60
2017-07-22T06:39:46.622Z,10.03
2017-07-22T06:42:12.617Z,9.30
2017-07-22T06:44:38.557Z,9.80
2017-07-22T06:47:04.495Z,9.37
2017-07-22T06:49:30.461Z,9.70
2017-07-22T06:51:56.445Z,9.20
2017-07-22T06:54:22.400Z,9.67
2017-07-22T06:56:48.392Z,9.00
2017-07-22T06:59:14.364Z,8.73
2017-07-22T07:01:41.092Z,8.27
2017-07-22T07:04:07.770Z,8.93
2017-07-22T07:06:33.706Z,8.90
2017-07-22T07:08:59.680Z,9.00
2017-07-22T07:11:25.612Z,9.80
2017-07-22T07:13:51.576Z,8.37
2017-07-22T07:16:17.567Z,9.60
2017-07-22T07:18:43.509Z,8.90
2017-07-22T07:21:09.578Z,9.00
2017-07-22T07:23:35.553Z,9.27
2017-07-22T07:26:01.534Z,8.23
2017-07-22T07:28:27.520Z,9.70
2017-07-22T07:30:53.464Z,9.07
2017-07-22T07:33:19.428Z,8.83
2017-07-22T07:35:45.448Z,9.03
2017-07-22T07:38:11.394Z,9.23
2017-07-22T07:40:37.379Z,9.90
2017-07-22T07:43:03.317Z,9.53
2017-07-22T07:45:29.268Z,8.80
2017-07-22T07:47:55.248Z,8.73
2017-07-22T07:50:21.208Z,9.27
2017-07-22T07:52:47.188Z,8.23
2017-07-22T07:55:13.152Z,10.57
2017-07-22T07:57:39.154Z,9.30
2017-07-22T08:00:05.100Z,9.00
2017-07-22T08:02:31.785Z,9.33
2017-07-22T08:04:57.748Z,9.23
2017-07-22T08:07:23.695Z,9.90
2017-07-22T08:09:49.672Z,7.83
2017-07-22T08:12:15.665Z,8.40
2017-07-22T08:14:41.607Z,9.03
2017-07-22T08:17:07.545Z,8.60
2017-07-22T08:19:33.518Z,8.73
2017-07-22T08:21:59.508Z,8.27
2017-07-22T08:24:25.452Z,8.70
2017-07-22T08:26:51.430Z,8.97
2017-07-22T08:29:17.416Z,8.27
2017-07-22T08:31:43.393Z,8.73
2017-07-22T08:34:09.361Z,8.67
2017-07-22T08:36:35.686Z,8.50
2017-07-22T08:39:01.941Z,8.50
2017-07-22T08:41:27.871Z,8.60
2017-07-22T08:43:54.588Z,8.73
2017-07-22T08:46:21.269Z,8.40
2017-07-22T08:48:47.355Z,7.50
2017-07-22T08:51:13.292Z,8.40
2017-07-22T08:53:39.224Z,8.43
2017-07-22T08:56:05.212Z,8.33
2017-07-22T08:58:31.152Z,7.57
2017-07-22T09:00:57.085Z,9.13
2017-07-22T09:03:23.060Z,8.53
2017-07-22T09:05:49.021Z,8.50
2017-07-22T09:08:14.988Z,8.50
2017-07-22T09:10:41.665Z,8.93
2017-07-22T09:13:07.643Z,8.30
2017-07-22T09:15:33.577Z,7.60
2017-07-22T09:17:59.572Z,7.17
2017-07-22T09:20:25.541Z,7.57
2017-07-22T09:22:51.490Z,7.10
2017-07-22T09:25:17.484Z,7.20
2017-07-22T09:27:43.425Z,8.33
2017-07-22T09:30:09.358Z,7.70
2017-07-22T09:32:35.344Z,8.10
2017-07-22T09:35:01.277Z,7.80
2017-07-22T09:37:27.246Z,6.53
2017-07-22T09:39:53.333Z,7.90
2017-07-22T09:42:19.314Z,7.77
2017-07-22T09:44:45.256Z,7.97
2017-07-22T09:47:11.469Z,7.77
2017-07-22T09:49:37.460Z,7.50
2017-07-22T09:52:07.098Z,8.30
2017-07-22T09:54:33.249Z,6.63
2017-07-22T09:56:59.240Z,7.80
2017-07-22T09:59:25.181Z,8.43
2017-07-22T10:01:53.457Z,6.60
2017-07-22T10:04:19.453Z,7.67
2017-07-22T10:06:45.406Z,6.87
2017-07-22T10:09:12.289Z,6.20
2017-07-22T10:11:38.341Z,6.60
2017-07-22T10:14:04.289Z,5.47
2017-07-22T10:16:30.989Z,5.90
2017-07-22T10:18:56.989Z,6.83
2017-07-22T10:21:23.157Z,6.23
2017-07-22T10:23:49.103Z,6.80
2017-07-22T10:26:15.082Z,7.23
2017-07-22T10:28:41.027Z,7.30
2017-07-22T10:31:07.921Z,6.97
2017-07-22T10:33:33.912Z,7.27
2017-07-22T10:36:00.670Z,7.53
2017-07-22T10:38:26.632Z,6.90
2017-07-22T10:40:53.385Z,7.57
2017-07-22T10:43:19.417Z,7.73
2017-07-22T10:45:45.438Z,7.33
2017-07-22T10:48:11.424Z,7.30
2017-07-22T10:50:37.448Z,7.67
2017-07-22T10:53:03.385Z,7.23
2017-07-22T10:55:29.332Z,8.10
2017-07-22T10:57:55.324Z,6.10
2017-07-22T11:00:22.013Z,7.20
2017-07-22T11:02:48.002Z,6.77
2017-07-22T11:05:13.984Z,7.60
2017-07-22T11:07:39.924Z,7.30
2017-07-22T11:10:06.374Z,7.40
2017-07-22T11:12:32.385Z,6.90
2017-07-22T11:14:58.329Z,7.70
2017-07-22T11:17:24.287Z,7.73
2017-07-22T11:19:50.295Z,7.60
2017-07-22T11:22:18.049Z,7.33
2017-07-22T11:24:44.000Z,8.20
2017-07-22T11:27:09.985Z,7.27
2017-07-22T11:29:35.953Z,7.97
2017-07-22T11:32:02.023Z,7.90
2017-07-22T11:34:27.988Z,8.30
2017-07-22T11:36:54.009Z,8.70
2017-07-22T11:39:20.001Z,7.90
2017-07-22T11:41:45.956Z,7.50
2017-07-22T11:44:11.947Z,7.50
2017-07-22T11:46:37.933Z,7.30
2017-07-22T11:49:03.900Z,7.67
2017-07-22T11:51:29.848Z,7.10
2017-07-22T11:53:55.839Z,7.27
2017-07-22T11:56:21.843Z,6.70
2017-07-22T11:58:47.946Z,7.77
2017-07-22T12:01:13.982Z,8.20
2017-07-22T12:03:39.979Z,6.83
2017-07-22T12:06:05.963Z,8.17
2017-07-22T12:08:31.988Z,8.00
2017-07-22T12:10:58.817Z,7.43
2017-07-22T12:13:24.845Z,7.73
2017-07-22T12:15:50.798Z,7.27
2017-07-22T12:18:16.745Z,7.70
2017-07-22T12:20:42.728Z,7.97
2017-07-22T12:23:09.988Z,7.80
2017-07-22T12:25:36.006Z,8.03
2017-07-22T12:28:02.181Z,7.30
2017-07-22T12:30:28.169Z,6.93
2017-07-22T12:32:54.168Z,8.27
2017-07-22T12:35:20.853Z,8.47
2017-07-22T12:37:48.993Z,7.10
2017-07-22T12:40:14.971Z,8.40
2017-07-22T12:42:40.969Z,7.70
2017-07-22T12:45:07.705Z,8.53
2017-07-22T12:47:33.666Z,8.60
2017-07-22T12:49:59.605Z,8.60
2017-07-22T12:52:26.317Z,9.73
2017-07-22T12:54:52.257Z,8.37
2017-07-22T12:57:18.246Z,8.93
2017-07-22T12:59:44.199Z,7.30
2017-07-22T13:02:10.167Z,7.97
2017-07-22T13:04:36.897Z,8.27
2017-07-22T13:07:03.580Z,8.43
2017-07-22T13:09:29.510Z,7.00
2017-07-22T13:11:55.505Z,6.43
2017-07-22T13:14:21.484Z,4.93
2017-07-22T13:16:47.425Z,6.77
2017-07-22T13:19:13.420Z,8.60
2017-07-22T13:21:39.385Z,10.60
2017-07-22T13:24:05.357Z,11.30
2017-07-22T13:26:33.151Z,13.00
2017-07-22T13:29:00.880Z,13.67
2017-07-22T13:31:28.662Z,14.90
2017-07-22T13:33:56.405Z,16.73
2017-07-22T13:36:24.136Z,16.73
2017-07-22T13:38:51.904Z,18.40
2017-07-22T13:41:19.660Z,19.30
2017-07-22T13:43:47.393Z,19.70
2017-07-22T13:46:15.165Z,19.53
2017-07-22T13:48:42.892Z,20.57
2017-07-22T13:51:08.842Z,21.70
2017-07-22T13:53:34.893Z,18.90
2017-07-22T13:56:01.584Z,16.63
2017-07-22T13:58:27.529Z,19.30
2017-07-22T14:00:54.259Z,18.67
2017-07-22T14:03:20.953Z,17.90
2017-07-22T14:05:46.981Z,17.40
2017-07-22T14:08:13.674Z,19.10
2017-07-22T14:10:39.646Z,18.70
2017-07-22T14:13:05.638Z,18.73
2017-07-22T14:15:31.617Z,19.20
2017-07-22T14:17:57.552Z,15.00
2017-07-22T14:20:24.239Z,15.07
2017-07-22T14:22:50.262Z,15.17
2017-07-22T14:25:16.216Z,14.97
2017-07-22T14:27:43.694Z,14.63
2017-07-22T14:30:09.681Z,16.30
2017-07-22T14:32:35.633Z,15.20
2017-07-22T14:35:01.604Z,11.73
2017-07-22T14:37:27.576Z,14.33
2017-07-22T14:39:53.552Z,15.90
2017-07-22T14:42:19.513Z,13.83
2017-07-22T14:44:45.493Z,12.37
2017-07-22T14:47:12.190Z,11.80
2017-07-22T14:49:38.478Z,10.60
2017-07-22T14:52:04.429Z,9.50
2017-07-22T14:54:31.108Z,10.60
2017-07-22T14:56:57.089Z,9.90
2017-07-22T14:59:23.025Z,10.23
2017-07-22T15:01:48.969Z,10.27
2017-07-22T15:04:14.944Z,11.27
2017-07-22T15:06:40.893Z,9.80
2017-07-22T15:09:07.580Z,10.97
2017-07-22T15:11:33.614Z,11.90
2017-07-22T15:13:59.559Z,10.53
2017-07-22T15:16:25.722Z,9.93
2017-07-22T15:18:53.456Z,9.50
2017-07-22T15:21:21.179Z,9.00
2017-07-22T15:23:48.936Z,7.90
2017-07-22T15:26:16.663Z,9.10
2017-07-22T15:28:44.437Z,8.53
2017-07-22T15:31:12.166Z,8.33
2017-07-22T15:33:39.940Z,9.53
2017-07-22T15:36:07.737Z,10.70
2017-07-22T15:38:35.621Z,9.37
2017-07-22T15:41:03.408Z,9.50
2017-07-22T15:43:31.137Z,9.13
2017-07-22T15:45:58.863Z,9.43
2017-07-22T15:48:26.620Z,9.60
2017-07-22T15:50:54.344Z,10.10
2017-07-22T15:53:22.095Z,9.87
2017-07-22T15:55:49.869Z,10.37
2017-07-22T15:58:17.593Z,9.70
2017-07-22T16:00:45.320Z,9.77
2017-07-22T16:03:13.085Z,9.60
2017-07-22T16:05:40.824Z,9.60
2017-07-22T16:08:08.612Z,10.03
2017-07-22T16:10:36.368Z,10.00
2017-07-22T16:13:04.133Z,11.20
2017-07-22T16:15:31.864Z,9.97
2017-07-22T16:17:59.642Z,9.97
2017-07-22T16:20:27.396Z,11.03
2017-07-22T16:22:55.120Z,11.17
2017-07-22T16:25:22.888Z,11.40
2017-07-22T16:27:50.615Z,10.90
2017-07-22T16:30:18.391Z,11.93
2017-07-22T16:32:46.124Z,10.50
2017-07-22T16:35:13.879Z,11.13
2017-07-22T16:37:41.695Z,12.40
2017-07-22T16:40:09.423Z,12.30
2017-07-22T16:42:37.159Z,11.53
2017-07-22T16:45:05.217Z,11.43
2017-07-22T16:47:32.876Z,11.50
2017-07-22T16:50:00.624Z,10.70
2017-07-22T16:52:28.380Z,10.90
2017-07-22T16:54:56.139Z,10.90
2017-07-22T16:57:23.912Z,11.10
2017-07-22T16:59:51.689Z,12.07
2017-07-22T17:02:19.456Z,11.47
2017-07-22T17:04:47.188Z,12.33
2017-07-22T17:07:14.912Z,11.70
2017-07-22T17:09:42.672Z,11.67
2017-07-22T17:12:10.435Z,11.63
2017-07-22T17:14:38.152Z,10.93
2017-07-22T17:17:05.944Z,10.50
2017-07-22T17:19:33.672Z,10.50
2017-07-22T17:22:01.413Z,11.90
2017-07-22T17:24:30.220Z,11.70
2017-07-22T17:26:57.961Z,12.07
2017-07-22T17:29:25.688Z,11.17
2017-07-22T17:31:53.456Z,10.97
2017-07-22T17:34:21.212Z,10.90
2017-07-22T17:36:48.970Z,11.10
2017-07-22T17:39:16.731Z,11.33
2017-07-22T17:41:44.502Z,11.30
2017-07-22T17:44:12.240Z,13.43
2017-07-22T17:46:39.989Z,11.60
2017-07-22T17:49:07.731Z,11.70
2017-07-22T17:51:35.477Z,13.00
2017-07-22T17:54:03.204Z,11.70
2017-07-22T17:56:30.952Z,12.37
2017-07-22T17:58:58.696Z,12.47
2017-07-22T18:01:26.472Z,12.17
2017-07-22T18:03:54.222Z,12.40
2017-07-22T18:06:21.955Z,12.40
2017-07-22T18:08:49.696Z,12.57
2017-07-22T18:11:17.429Z,13.00
2017-07-22T18:13:45.164Z,13.43
2017-07-22T18:16:12.893Z,13.53
2017-07-22T18:18:40.641Z,12.93
2017-07-22T18:21:08.388Z,16.43
2017-07-22T18:23:36.112Z,15.07
2017-07-22T18:26:03.855Z,14.73
2017-07-22T18:28:31.593Z,15.50
2017-07-22T18:30:59.350Z,15.40
2017-07-22T18:33:27.086Z,14.60
2017-07-22T18:35:54.850Z,18.00
2017-07-22T18:38:22.575Z,15.77
2017-07-22T18:40:50.315Z,17.20
2017-07-22T18:43:18.035Z,16.00
2017-07-22T18:45:45.812Z,15.93
2017-07-22T18:48:13.531Z,17.80
2017-07-22T18:50:41.267Z,17.60
2017-07-22T18:53:09.036Z,23.00
2017-07-22T18:55:36.778Z,22.50
2017-07-22T18:58:02.732Z,20.33
2017-07-22T19:00:28.693Z,18.53
2017-07-22T19:02:54.633Z,19.40
2017-07-22T19:05:21.365Z,19.17
2017-07-22T19:07:47.304Z,19.33
2017-07-22T19:10:13.241Z,17.67
2017-07-22T19:12:39.244Z,19.13
2017-07-22T19:15:05.217Z,17.90
2017-07-22T19:17:31.209Z,17.80
2017-07-22T19:19:57.245Z,19.97
2017-07-22T19:22:23.213Z,19.07
2017-07-22T19:24:50.163Z,20.97
2017-07-22T19:27:16.116Z,19.93
2017-07-22T19:29:42.060Z,20.60
2017-07-22T19:32:09.149Z,19.90
2017-07-22T19:34:35.092Z,20.40
2017-07-22T19:37:01.052Z,22.07
2017-07-22T19:39:26.995Z,21.90
2017-07-22T19:41:52.974Z,20.00
2017-07-22T19:44:18.936Z,21.23
2017-07-22T19:46:45.637Z,20.17
2017-07-22T19:49:11.645Z,18.40
2017-07-22T19:51:37.605Z,18.33
2017-07-22T19:54:03.545Z,20.40
2017-07-22T19:56:29.516Z,19.47
2017-07-22T19:58:55.456Z,19.03
2017-07-22T20:01:21.438Z,18.20
2017-07-22T20:03:47.373Z,17.90
2017-07-22T20:06:13.329Z,19.57
2017-07-22T20:08:40.025Z,18.97
2017-07-22T20:11:05.956Z,19.97
2017-07-22T20:13:32.716Z,18.10
2017-07-22T20:15:58.672Z,18.30
2017-07-22T20:18:24.648Z,19.50
2017-07-22T20:20:50.581Z,19.30
2017-07-22T20:23:16.521Z,19.57
2017-07-22T20:25:43.217Z,20.77
2017-07-22T20:28:09.172Z,20.40
2017-07-22T20:30:36.945Z,20.80
2017-07-22T20:33:04.664Z,18.70
2017-07-22T20:35:32.388Z,20.30
2017-07-22T20:38:00.144Z,18.80
2017-07-22T20:40:27.995Z,19.53
2017-07-22T20:42:55.728Z,18.50
2017-07-22T20:45:23.508Z,17.63
2017-07-22T20:47:51.240Z,21.00
2017-07-22T20:50:18.960Z,20.13
2017-07-22T20:52:46.724Z,18.57
2017-07-22T20:55:14.444Z,19.73
2017-07-22T20:57:42.164Z,20.60
2017-07-22T21:00:09.923Z,20.90
2017-07-22T21:02:37.696Z,20.10
2017-07-22T21:05:05.444Z,21.47
2017-07-22T21:07:33.168Z,21.70
2017-07-22T21:10:00.934Z,21.50
2017-07-22T21:12:28.996Z,22.43
2017-07-22T21:14:56.724Z,22.70
2017-07-22T21:17:24.465Z,19.53
2017-07-22T21:19:52.232Z,22.03
2017-07-22T21:22:19.989Z,19.93
2017-07-22T21:24:47.712Z,21.20
2017-07-22T21:27:15.468Z,21.50
2017-07-22T21:29:43.191Z,22.10
2017-07-22T21:32:10.956Z,23.33
2017-07-22T21:34:38.684Z,24.23
2017-07-22T21:37:06.403Z,23.53
2017-07-22T21:39:34.171Z,24.47
2017-07-22T21:42:01.892Z,25.53
2017-07-22T21:44:29.624Z,25.20
2017-07-22T21:46:57.392Z,21.80
2017-07-22T21:49:25.172Z,25.00
2017-07-22T21:51:52.892Z,23.60
2017-07-22T21:54:20.649Z,23.23
2017-07-22T21:56:48.694Z,22.40
2017-07-22T21:59:16.410Z,22.43
2017-07-22T22:01:44.131Z,21.53
2017-07-22T22:04:11.890Z,20.07
2017-07-22T22:06:39.659Z,22.33
2017-07-22T22:09:07.420Z,20.33
2017-07-22T22:11:35.144Z,20.80
2017-07-22T22:14:02.872Z,19.20
2017-07-22T22:16:30.637Z,21.07
2017-07-22T22:18:58.381Z,22.10
2017-07-22T22:21:26.116Z,20.97
2017-07-22T22:23:53.881Z,22.40
2017-07-22T22:26:21.604Z,21.17
2017-07-22T22:28:49.368Z,21.37
2017-07-22T22:31:17.096Z,20.20
2017-07-22T22:33:44.825Z,20.83
2017-07-22T22:36:12.580Z,21.07
2017-07-22T22:38:40.341Z,19.83
2017-07-22T22:41:08.069Z,19.93
2017-07-22T22:43:35.787Z,19.20
2017-07-22T22:46:03.551Z,21.20
2017-07-22T22:48:31.267Z,20.23
2017-07-22T22:50:59.001Z,19.50
2017-07-22T22:53:26.816Z,20.80
2017-07-22T22:55:54.553Z,19.77
2017-07-22T22:58:22.316Z,19.83
2017-07-22T23:00:50.080Z,19.27
2017-07-22T23:03:17.799Z,20.73
2017-07-22T23:05:45.559Z,19.40
2017-07-22T23:08:13.360Z,21.23
2017-07-22T23:10:41.152Z,20.17
2017-07-22T23:13:08.905Z,19.70
2017-07-22T23:15:36.633Z,19.50
2017-07-22T23:18:04.398Z,18.10
2017-07-22T23:20:32.171Z,17.90
2017-07-22T23:22:59.899Z,19.43
2017-07-22T23:25:27.626Z,18.93
2017-07-22T23:27:55.412Z,20.43
2017-07-22T23:30:23.141Z,21.90
2017-07-22T23:32:50.883Z,21.77
2017-07-22T23:35:18.655Z,20.60
2017-07-22T23:37:46.388Z,20.60
2017-07-22T23:40:14.107Z,19.23
2017-07-22T23:42:41.900Z,18.90
2017-07-22T23:45:09.628Z,18.77
2017-07-22T23:47:37.391Z,18.40
2017-07-22T23:50:05.112Z,19.37
2017-07-22T23:52:32.876Z,18.13
2017-07-22T23:55:00.684Z,17.53
2017-07-22T23:57:28.407Z,18.70
2017-07-22T23:59:56.167Z,17.13
